TimeEDT,TemperatureF,Dew PointF,Humidity,Sea Level PressureIn,VisibilityMPH,Wind Direction,Wind SpeedMPH,Gust SpeedMPH,PrecipitationIn,Events,Conditions,WindDirDegrees,DateUTC
12:53 AM,79.0,73.0,82,29.94,10.0,ENE,5.8,-,N/A,,Scattered Clouds,70,2011-10-27 04:53:00
1:53 AM,78.1,73.0,84,29.93,6.0,East,9.2,-,0.00,Rain,Light Rain,100,2011-10-27 05:53:00
2:53 AM,78.1,73.0,84,29.91,10.0,East,6.9,-,0.01,,Mostly Cloudy,80,2011-10-27 06:53:00
4:53 AM,78.1,70.0,76,29.89,10.0,East,8.1,-,N/A,,Clear,80,2011-10-27 08:53:00
5:53 AM,78.1,71.1,79,29.88,10.0,East,9.2,-,N/A,,Overcast,90,2011-10-27 09:53:00
8:53 AM,80.1,72.0,76,29.91,10.0,East,9.2,-,N/A,,Clear,80,2011-10-27 12:53:00
9:53 AM,81.0,73.0,77,29.93,10.0,East,6.9,-,N/A,,Clear,90,2011-10-27 13:53:00
10:53 AM,82.0,73.0,74,29.93,10.0,East,9.2,-,N/A,,Scattered Clouds,90,2011-10-27 14:53:00
11:53 AM,82.9,73.0,72,29.92,10.0,East,8.1,-,N/A,,Clear,90,2011-10-27 15:53:00
12:53 PM,82.9,75.0,77,29.90,10.0,East,9.2,-,N/A,,Mostly Cloudy,80,2011-10-27 16:53:00
1:53 PM,84.0,73.9,72,29.87,10.0,East,11.5,-,N/A,,Scattered Clouds,90,2011-10-27 17:53:00
2:53 PM,82.9,73.9,74,29.86,10.0,East,8.1,-,N/A,,Partly Cloudy,100,2011-10-27 18:53:00
3:53 PM,82.9,75.0,77,29.85,10.0,East,9.2,-,N/A,,Mostly Cloudy,90,2011-10-27 19:53:00
4:53 PM,82.0,73.9,76,29.85,10.0,East,6.9,-,N/A,,Clear,90,2011-10-27 20:53:00
5:53 PM,81.0,73.9,79,29.86,10.0,East,8.1,-,N/A,,Clear,80,2011-10-27 21:53:00
6:53 PM,80.1,73.9,81,29.87,10.0,East,6.9,-,N/A,,Partly Cloudy,80,2011-10-27 22:53:00
7:53 PM,80.1,75.0,85,29.88,10.0,ENE,4.6,-,N/A,,Clear,60,2011-10-27 23:53:00
8:53 PM,80.1,75.0,85,29.90,10.0,ENE,5.8,-,N/A,,Partly Cloudy,70,2011-10-28 00:53:00
9:53 PM,79.0,75.9,90,29.91,10.0,East,4.6,-,N/A,,Clear,80,2011-10-28 01:53:00
10:53 PM,80.1,75.0,85,29.91,10.0,East,6.9,-,N/A,,Clear,80,2011-10-28 02:53:00
11:53 PM,80.1,75.9,87,29.91,10.0,East,5.8,-,N/A,,Clear,90,2011-10-28 03:53:00